METAR Data
IDs: Format: Raw Decoded Include TAF

Data at: 0010 UTC 25 Apr 2019

METAR for:KIOW (Iowa City Muni, IA, US)
Text:KIOW 242352Z AUTO 12004KT 10SM CLR 17/07 A2984 RMK AO2 SLP104 T01670067 10178 20150 58013 $
Temperature: 16.7°C ( 62°F)
Dewpoint: 6.7°C ( 44°F) [RH = 52%]
Pressure (altimeter):29.84 inches Hg (1010.6 mb) [Sea level pressure: 1010.4 mb]
Winds:from the ESE (120 degrees) at 5 MPH (4 knots; 2.1 m/s)
Visibility:10 or more sm (16+ km)
Ceiling:at least 12,000 feet AGL
Clouds:sky clear below 12,000 feet AGL
QC Flag:automated observation with no human augmentation; SOME DATA ABOVE MAY BE INACCURATE!!!"$" is an indication the sensor requires maintenance.